sensor_id;sensor_type;location;lat;lon;timestamp;temperature;humidity
41116;DHT22;26861;51.824;4.682;2024-01-16T00:00:34;12.40;66.00
41116;DHT22;26861;51.824;4.682;2024-01-16T00:02:59;12.40;65.50
41116;DHT22;26861;51.824;4.682;2024-01-16T00:05:25;12.30;66.00
41116;DHT22;26861;51.824;4.682;2024-01-16T00:07:50;12.40;65.70
41116;DHT22;26861;51.824;4.682;2024-01-16T00:10:16;12.30;65.90
41116;DHT22;26861;51.824;4.682;2024-01-16T00:12:42;12.40;65.90
41116;DHT22;26861;51.824;4.682;2024-01-16T00:15:08;12.30;65.80
41116;DHT22;26861;51.824;4.682;2024-01-16T00:17:34;12.30;65.50
41116;DHT22;26861;51.824;4.682;2024-01-16T00:20:00;12.30;66.00
41116;DHT22;26861;51.824;4.682;2024-01-16T00:22:26;12.20;65.70
41116;DHT22;26861;51.824;4.682;2024-01-16T00:24:52;12.40;65.90
41116;DHT22;26861;51.824;4.682;2024-01-16T00:27:17;12.30;65.80
41116;DHT22;26861;51.824;4.682;2024-01-16T00:29:43;12.30;65.80
41116;DHT22;26861;51.824;4.682;2024-01-16T00:32:08;12.50;66.00
41116;DHT22;26861;51.824;4.682;2024-01-16T00:34:33;12.30;65.90
41116;DHT22;26861;51.824;4.682;2024-01-16T00:36:59;12.50;65.70
41116;DHT22;26861;51.824;4.682;2024-01-16T00:39:25;12.30;65.80
41116;DHT22;26861;51.824;4.682;2024-01-16T00:41:51;12.30;65.70
41116;DHT22;26861;51.824;4.682;2024-01-16T00:44:16;12.30;65.70
41116;DHT22;26861;51.824;4.682;2024-01-16T00:46:42;12.30;65.70
41116;DHT22;26861;51.824;4.682;2024-01-16T00:49:07;12.30;65.80
41116;DHT22;26861;51.824;4.682;2024-01-16T00:51:33;12.30;65.80
41116;DHT22;26861;51.824;4.682;2024-01-16T00:53:58;12.30;65.70
41116;DHT22;26861;51.824;4.682;2024-01-16T00:56:24;12.20;66.00
41116;DHT22;26861;51.824;4.682;2024-01-16T00:58:52;12.20;65.80
41116;DHT22;26861;51.824;4.682;2024-01-16T01:01:19;12.20;65.50
41116;DHT22;26861;51.824;4.682;2024-01-16T01:03:45;12.20;66.00
41116;DHT22;26861;51.824;4.682;2024-01-16T01:06:10;12.10;65.60
41116;DHT22;26861;51.824;4.682;2024-01-16T01:08:36;12.30;65.90
41116;DHT22;26861;51.824;4.682;2024-01-16T01:11:01;12.20;65.70
41116;DHT22;26861;51.824;4.682;2024-01-16T01:13:30;12.20;65.40
41116;DHT22;26861;51.824;4.682;2024-01-16T01:15:56;12.30;65.60
41116;DHT22;26861;51.824;4.682;2024-01-16T01:18:21;12.30;65.50
41116;DHT22;26861;51.824;4.682;2024-01-16T01:20:48;12.20;65.40
41116;DHT22;26861;51.824;4.682;2024-01-16T01:23:13;12.20;65.80
41116;DHT22;26861;51.824;4.682;2024-01-16T01:25:39;12.20;65.90
41116;DHT22;26861;51.824;4.682;2024-01-16T01:28:04;12.20;65.60
41116;DHT22;26861;51.824;4.682;2024-01-16T01:30:31;12.50;65.40
41116;DHT22;26861;51.824;4.682;2024-01-16T01:32:56;12.20;66.50
41116;DHT22;26861;51.824;4.682;2024-01-16T01:35:22;12.20;65.70
41116;DHT22;26861;51.824;4.682;2024-01-16T01:37:47;12.20;65.80
41116;DHT22;26861;51.824;4.682;2024-01-16T01:40:13;12.20;65.80
41116;DHT22;26861;51.824;4.682;2024-01-16T01:42:41;12.20;65.70
41116;DHT22;26861;51.824;4.682;2024-01-16T01:45:08;12.20;65.90
41116;DHT22;26861;51.824;4.682;2024-01-16T01:47:34;12.20;64.10
41116;DHT22;26861;51.824;4.682;2024-01-16T01:49:59;12.20;66.00
41116;DHT22;26861;51.824;4.682;2024-01-16T01:52:25;12.20;66.30
41116;DHT22;26861;51.824;4.682;2024-01-16T01:54:51;12.50;66.40
41116;DHT22;26861;51.824;4.682;2024-01-16T01:57:17;12.20;66.10
41116;DHT22;26861;51.824;4.682;2024-01-16T01:59:43;12.20;66.20
41116;DHT22;26861;51.824;4.682;2024-01-16T02:02:08;12.10;66.30
41116;DHT22;26861;51.824;4.682;2024-01-16T02:04:35;12.10;66.40
41116;DHT22;26861;51.824;4.682;2024-01-16T02:07:01;12.10;66.50
41116;DHT22;26861;51.824;4.682;2024-01-16T02:09:27;12.20;66.20
41116;DHT22;26861;51.824;4.682;2024-01-16T02:11:52;13.90;67.40
41116;DHT22;26861;51.824;4.682;2024-01-16T02:14:18;12.10;67.00
41116;DHT22;26861;51.824;4.682;2024-01-16T02:16:43;12.20;66.50
41116;DHT22;26861;51.824;4.682;2024-01-16T02:19:12;12.20;62.20
41116;DHT22;26861;51.824;4.682;2024-01-16T02:21:47;12.10;66.20
41116;DHT22;26861;51.824;4.682;2024-01-16T02:24:16;12.10;61.40
41116;DHT22;26861;51.824;4.682;2024-01-16T02:26:42;12.10;66.50
41116;DHT22;26861;51.824;4.682;2024-01-16T02:29:08;12.20;66.50
41116;DHT22;26861;51.824;4.682;2024-01-16T02:31:34;12.10;66.30
41116;DHT22;26861;51.824;4.682;2024-01-16T02:34:00;12.10;66.50
41116;DHT22;26861;51.824;4.682;2024-01-16T02:36:26;12.10;66.20
41116;DHT22;26861;51.824;4.682;2024-01-16T02:38:51;12.10;66.60
41116;DHT22;26861;51.824;4.682;2024-01-16T02:41:18;12.10;66.50
41116;DHT22;26861;51.824;4.682;2024-01-16T02:43:44;12.00;66.40
41116;DHT22;26861;51.824;4.682;2024-01-16T02:46:10;12.00;66.40
41116;DHT22;26861;51.824;4.682;2024-01-16T02:48:35;12.20;66.50
41116;DHT22;26861;51.824;4.682;2024-01-16T02:51:01;12.10;66.50
41116;DHT22;26861;51.824;4.682;2024-01-16T02:53:27;12.10;66.40
41116;DHT22;26861;51.824;4.682;2024-01-16T02:55:54;12.10;66.20
41116;DHT22;26861;51.824;4.682;2024-01-16T02:58:20;12.10;66.30
41116;DHT22;26861;51.824;4.682;2024-01-16T03:00:45;12.00;66.20
41116;DHT22;26861;51.824;4.682;2024-01-16T03:03:11;12.00;66.10
41116;DHT22;26861;51.824;4.682;2024-01-16T03:05:37;12.10;66.60
41116;DHT22;26861;51.824;4.682;2024-01-16T03:08:02;12.10;66.10
41116;DHT22;26861;51.824;4.682;2024-01-16T03:10:28;12.00;65.70
41116;DHT22;26861;51.824;4.682;2024-01-16T03:12:53;12.00;66.50
41116;DHT22;26861;51.824;4.682;2024-01-16T03:15:19;12.00;66.50
41116;DHT22;26861;51.824;4.682;2024-01-16T03:17:45;12.00;66.30
41116;DHT22;26861;51.824;4.682;2024-01-16T03:20:11;12.00;66.40
41116;DHT22;26861;51.824;4.682;2024-01-16T03:22:37;12.00;65.60
41116;DHT22;26861;51.824;4.682;2024-01-16T03:25:02;12.00;66.40
41116;DHT22;26861;51.824;4.682;2024-01-16T03:27:28;12.00;65.80
41116;DHT22;26861;51.824;4.682;2024-01-16T03:29:53;12.00;66.30
41116;DHT22;26861;51.824;4.682;2024-01-16T03:32:19;12.00;66.30
41116;DHT22;26861;51.824;4.682;2024-01-16T03:34:44;12.00;66.30
41116;DHT22;26861;51.824;4.682;2024-01-16T03:37:10;12.00;66.20
41116;DHT22;26861;51.824;4.682;2024-01-16T03:39:35;11.90;66.20
41116;DHT22;26861;51.824;4.682;2024-01-16T03:42:01;11.90;66.20
41116;DHT22;26861;51.824;4.682;2024-01-16T03:44:27;12.10;66.30
41116;DHT22;26861;51.824;4.682;2024-01-16T03:46:52;12.00;66.20
41116;DHT22;26861;51.824;4.682;2024-01-16T03:49:17;12.10;66.20
41116;DHT22;26861;51.824;4.682;2024-01-16T03:51:43;12.00;66.40
41116;DHT22;26861;51.824;4.682;2024-01-16T03:54:14;12.00;66.10
41116;DHT22;26861;51.824;4.682;2024-01-16T03:56:39;12.00;61.20
41116;DHT22;26861;51.824;4.682;2024-01-16T03:59:05;12.00;66.00
41116;DHT22;26861;51.824;4.682;2024-01-16T04:01:34;12.00;65.80
41116;DHT22;26861;51.824;4.682;2024-01-16T04:04:02;11.90;66.20
41116;DHT22;26861;51.824;4.682;2024-01-16T04:06:28;12.00;66.20
41116;DHT22;26861;51.824;4.682;2024-01-16T04:08:54;11.90;66.00
41116;DHT22;26861;51.824;4.682;2024-01-16T04:11:19;11.90;66.10
41116;DHT22;26861;51.824;4.682;2024-01-16T04:13:45;11.90;66.10
41116;DHT22;26861;51.824;4.682;2024-01-16T04:16:11;11.90;65.90
41116;DHT22;26861;51.824;4.682;2024-01-16T04:18:38;12.00;66.10
41116;DHT22;26861;51.824;4.682;2024-01-16T04:21:04;11.80;66.10
41116;DHT22;26861;51.824;4.682;2024-01-16T04:23:29;11.90;65.40
41116;DHT22;26861;51.824;4.682;2024-01-16T04:25:55;11.80;65.90
41116;DHT22;26861;51.824;4.682;2024-01-16T04:28:20;11.90;66.00
41116;DHT22;26861;51.824;4.682;2024-01-16T04:30:46;11.90;65.90
41116;DHT22;26861;51.824;4.682;2024-01-16T04:33:11;12.00;66.00
41116;DHT22;26861;51.824;4.682;2024-01-16T04:35:37;11.80;65.90
41116;DHT22;26861;51.824;4.682;2024-01-16T04:38:02;11.90;66.10
41116;DHT22;26861;51.824;4.682;2024-01-16T04:40:28;11.90;65.20
41116;DHT22;26861;51.824;4.682;2024-01-16T04:42:54;11.80;65.90
41116;DHT22;26861;51.824;4.682;2024-01-16T04:45:19;11.90;66.20
41116;DHT22;26861;51.824;4.682;2024-01-16T04:47:45;11.90;66.30
41116;DHT22;26861;51.824;4.682;2024-01-16T04:50:10;11.80;66.20
41116;DHT22;26861;51.824;4.682;2024-01-16T04:52:36;11.80;65.80
41116;DHT22;26861;51.824;4.682;2024-01-16T04:55:01;11.80;66.10
41116;DHT22;26861;51.824;4.682;2024-01-16T04:57:27;11.90;66.00
41116;DHT22;26861;51.824;4.682;2024-01-16T04:59:52;11.90;65.90
41116;DHT22;26861;51.824;4.682;2024-01-16T05:02:18;11.90;65.30
41116;DHT22;26861;51.824;4.682;2024-01-16T05:04:43;11.90;65.80
41116;DHT22;26861;51.824;4.682;2024-01-16T05:07:09;11.90;65.90
41116;DHT22;26861;51.824;4.682;2024-01-16T05:09:34;11.90;66.00
41116;DHT22;26861;51.824;4.682;2024-01-16T05:12:00;11.90;66.20
41116;DHT22;26861;51.824;4.682;2024-01-16T05:14:26;11.80;66.00
41116;DHT22;26861;51.824;4.682;2024-01-16T05:16:52;12.20;65.90
41116;DHT22;26861;51.824;4.682;2024-01-16T05:19:18;11.90;65.80
41116;DHT22;26861;51.824;4.682;2024-01-16T05:21:43;11.90;66.00
41116;DHT22;26861;51.824;4.682;2024-01-16T05:24:09;11.90;65.90
41116;DHT22;26861;51.824;4.682;2024-01-16T05:26:34;11.90;66.00
41116;DHT22;26861;51.824;4.682;2024-01-16T05:29:00;11.90;66.00
41116;DHT22;26861;51.824;4.682;2024-01-16T05:31:26;11.90;66.00
41116;DHT22;26861;51.824;4.682;2024-01-16T05:33:51;11.90;66.20
41116;DHT22;26861;51.824;4.682;2024-01-16T05:36:17;11.80;66.30
41116;DHT22;26861;51.824;4.682;2024-01-16T05:38:42;11.80;66.20
41116;DHT22;26861;51.824;4.682;2024-01-16T05:41:09;11.90;66.10
41116;DHT22;26861;51.824;4.682;2024-01-16T05:43:34;12.00;66.40
41116;DHT22;26861;51.824;4.682;2024-01-16T05:46:00;11.90;66.20
41116;DHT22;26861;51.824;4.682;2024-01-16T05:48:26;11.90;66.10
41116;DHT22;26861;51.824;4.682;2024-01-16T05:50:51;12.00;66.30
41116;DHT22;26861;51.824;4.682;2024-01-16T05:53:17;11.90;66.20
41116;DHT22;26861;51.824;4.682;2024-01-16T05:55:42;11.90;66.20
41116;DHT22;26861;51.824;4.682;2024-01-16T05:58:08;11.90;65.70
41116;DHT22;26861;51.824;4.682;2024-01-16T06:00:33;11.80;66.00
41116;DHT22;26861;51.824;4.682;2024-01-16T06:02:59;11.80;65.60
41116;DHT22;26861;51.824;4.682;2024-01-16T06:05:25;11.90;66.10
41116;DHT22;26861;51.824;4.682;2024-01-16T06:07:50;11.90;65.70
41116;DHT22;26861;51.824;4.682;2024-01-16T06:10:16;12.00;66.50
41116;DHT22;26861;51.824;4.682;2024-01-16T06:12:41;11.90;66.00
41116;DHT22;26861;51.824;4.682;2024-01-16T06:15:07;11.90;66.10
41116;DHT22;26861;51.824;4.682;2024-01-16T06:17:33;11.90;65.00
41116;DHT22;26861;51.824;4.682;2024-01-16T06:19:58;11.90;65.90
41116;DHT22;26861;51.824;4.682;2024-01-16T06:22:24;11.80;66.00
41116;DHT22;26861;51.824;4.682;2024-01-16T06:24:49;11.90;66.10
41116;DHT22;26861;51.824;4.682;2024-01-16T06:27:15;11.90;66.00
41116;DHT22;26861;51.824;4.682;2024-01-16T06:29:44;11.80;65.90
41116;DHT22;26861;51.824;4.682;2024-01-16T06:32:10;11.80;66.20
41116;DHT22;26861;51.824;4.682;2024-01-16T06:34:35;11.90;66.40
41116;DHT22;26861;51.824;4.682;2024-01-16T06:37:01;11.80;66.10
41116;DHT22;26861;51.824;4.682;2024-01-16T06:39:26;11.80;66.60
41116;DHT22;26861;51.824;4.682;2024-01-16T06:41:52;11.80;66.70
41116;DHT22;26861;51.824;4.682;2024-01-16T06:44:18;11.80;66.80
41116;DHT22;26861;51.824;4.682;2024-01-16T06:46:44;11.80;66.20
41116;DHT22;26861;51.824;4.682;2024-01-16T06:49:09;11.90;66.80
41116;DHT22;26861;51.824;4.682;2024-01-16T06:51:35;11.80;67.00
41116;DHT22;26861;51.824;4.682;2024-01-16T06:54:00;11.70;66.50
41116;DHT22;26861;51.824;4.682;2024-01-16T06:56:26;11.70;66.50
41116;DHT22;26861;51.824;4.682;2024-01-16T06:58:52;11.80;66.30
41116;DHT22;26861;51.824;4.682;2024-01-16T07:01:18;11.90;66.30
41116;DHT22;26861;51.824;4.682;2024-01-16T07:03:43;11.70;66.70
41116;DHT22;26861;51.824;4.682;2024-01-16T07:06:09;11.70;66.60
41116;DHT22;26861;51.824;4.682;2024-01-16T07:08:34;11.70;66.70
41116;DHT22;26861;51.824;4.682;2024-01-16T07:11:01;11.90;66.70
41116;DHT22;26861;51.824;4.682;2024-01-16T07:13:26;11.70;66.70
41116;DHT22;26861;51.824;4.682;2024-01-16T07:15:52;11.70;66.10
41116;DHT22;26861;51.824;4.682;2024-01-16T07:18:17;11.70;66.60
41116;DHT22;26861;51.824;4.682;2024-01-16T07:20:43;11.60;66.50
41116;DHT22;26861;51.824;4.682;2024-01-16T07:23:10;12.10;66.70
41116;DHT22;26861;51.824;4.682;2024-01-16T07:25:36;11.70;66.80
41116;DHT22;26861;51.824;4.682;2024-01-16T07:28:02;11.70;67.00
41116;DHT22;26861;51.824;4.682;2024-01-16T07:30:28;11.80;66.40
41116;DHT22;26861;51.824;4.682;2024-01-16T07:32:54;11.70;66.50
41116;DHT22;26861;51.824;4.682;2024-01-16T07:35:20;11.70;66.50
41116;DHT22;26861;51.824;4.682;2024-01-16T07:37:46;11.70;66.50
41116;DHT22;26861;51.824;4.682;2024-01-16T07:40:12;11.70;66.60
41116;DHT22;26861;51.824;4.682;2024-01-16T07:42:38;11.80;66.50
41116;DHT22;26861;51.824;4.682;2024-01-16T07:45:03;11.80;66.50
41116;DHT22;26861;51.824;4.682;2024-01-16T07:47:32;11.70;64.90
41116;DHT22;26861;51.824;4.682;2024-01-16T07:49:58;11.70;61.50
41116;DHT22;26861;51.824;4.682;2024-01-16T07:52:25;11.70;66.40
41116;DHT22;26861;51.824;4.682;2024-01-16T07:54:50;11.70;66.20
41116;DHT22;26861;51.824;4.682;2024-01-16T07:57:16;11.70;66.10
41116;DHT22;26861;51.824;4.682;2024-01-16T07:59:41;11.70;66.30
41116;DHT22;26861;51.824;4.682;2024-01-16T08:02:07;11.70;66.00
41116;DHT22;26861;51.824;4.682;2024-01-16T08:04:33;11.70;66.20
41116;DHT22;26861;51.824;4.682;2024-01-16T08:06:59;11.70;66.10
41116;DHT22;26861;51.824;4.682;2024-01-16T08:09:24;11.80;66.30
41116;DHT22;26861;51.824;4.682;2024-01-16T08:11:50;11.80;66.10
41116;DHT22;26861;51.824;4.682;2024-01-16T08:14:15;11.70;66.20
41116;DHT22;26861;51.824;4.682;2024-01-16T08:16:41;11.70;66.00
41116;DHT22;26861;51.824;4.682;2024-01-16T08:19:06;11.80;66.60
41116;DHT22;26861;51.824;4.682;2024-01-16T08:21:33;11.80;65.90
41116;DHT22;26861;51.824;4.682;2024-01-16T08:23:58;11.80;65.80
41116;DHT22;26861;51.824;4.682;2024-01-16T08:26:24;11.70;65.90
41116;DHT22;26861;51.824;4.682;2024-01-16T08:28:49;11.70;65.70
41116;DHT22;26861;51.824;4.682;2024-01-16T08:31:16;11.80;65.60
41116;DHT22;26861;51.824;4.682;2024-01-16T08:33:42;11.90;65.80
41116;DHT22;26861;51.824;4.682;2024-01-16T08:36:07;12.10;65.80
41116;DHT22;26861;51.824;4.682;2024-01-16T08:38:33;11.70;64.80
41116;DHT22;26861;51.824;4.682;2024-01-16T08:40:58;11.80;65.20
41116;DHT22;26861;51.824;4.682;2024-01-16T08:43:24;11.70;65.40
41116;DHT22;26861;51.824;4.682;2024-01-16T08:45:50;11.80;65.40
41116;DHT22;26861;51.824;4.682;2024-01-16T08:48:16;11.70;65.60
41116;DHT22;26861;51.824;4.682;2024-01-16T08:50:42;11.70;65.50
41116;DHT22;26861;51.824;4.682;2024-01-16T08:53:08;11.80;65.30
41116;DHT22;26861;51.824;4.682;2024-01-16T08:55:34;11.70;65.60
41116;DHT22;26861;51.824;4.682;2024-01-16T08:58:00;11.80;65.80
41116;DHT22;26861;51.824;4.682;2024-01-16T09:00:26;11.70;65.80
41116;DHT22;26861;51.824;4.682;2024-01-16T09:02:53;11.70;65.60
41116;DHT22;26861;51.824;4.682;2024-01-16T09:05:18;11.70;65.30
41116;DHT22;26861;51.824;4.682;2024-01-16T09:07:47;11.80;65.90
41116;DHT22;26861;51.824;4.682;2024-01-16T09:10:13;12.10;66.20
41116;DHT22;26861;51.824;4.682;2024-01-16T09:12:39;11.70;65.60
41116;DHT22;26861;51.824;4.682;2024-01-16T09:15:05;11.80;66.00
41116;DHT22;26861;51.824;4.682;2024-01-16T09:17:31;11.80;63.90
41116;DHT22;26861;51.824;4.682;2024-01-16T09:19:57;11.70;66.00
41116;DHT22;26861;51.824;4.682;2024-01-16T09:22:23;11.80;65.90
41116;DHT22;26861;51.824;4.682;2024-01-16T09:24:48;11.80;66.10
41116;DHT22;26861;51.824;4.682;2024-01-16T09:27:14;11.70;66.00
41116;DHT22;26861;51.824;4.682;2024-01-16T09:29:41;11.80;65.80
41116;DHT22;26861;51.824;4.682;2024-01-16T09:32:07;12.00;66.20
41116;DHT22;26861;51.824;4.682;2024-01-16T09:34:33;11.80;65.80
41116;DHT22;26861;51.824;4.682;2024-01-16T09:36:58;11.80;65.40
41116;DHT22;26861;51.824;4.682;2024-01-16T09:39:26;11.90;65.80
41116;DHT22;26861;51.824;4.682;2024-01-16T09:41:52;11.80;65.90
41116;DHT22;26861;51.824;4.682;2024-01-16T09:44:17;12.30;66.30
41116;DHT22;26861;51.824;4.682;2024-01-16T09:46:43;11.70;65.90
41116;DHT22;26861;51.824;4.682;2024-01-16T09:49:11;11.80;65.70
41116;DHT22;26861;51.824;4.682;2024-01-16T09:51:37;11.70;66.20
41116;DHT22;26861;51.824;4.682;2024-01-16T09:54:02;12.30;66.40
41116;DHT22;26861;51.824;4.682;2024-01-16T09:56:33;11.80;65.90
41116;DHT22;26861;51.824;4.682;2024-01-16T09:59:03;12.00;66.20
41116;DHT22;26861;51.824;4.682;2024-01-16T10:01:30;11.80;65.60
41116;DHT22;26861;51.824;4.682;2024-01-16T10:03:56;12.00;66.10
41116;DHT22;26861;51.824;4.682;2024-01-16T10:06:21;11.80;65.90
41116;DHT22;26861;51.824;4.682;2024-01-16T10:08:48;11.70;65.70
41116;DHT22;26861;51.824;4.682;2024-01-16T10:11:13;11.70;65.10
41116;DHT22;26861;51.824;4.682;2024-01-16T10:13:39;11.80;65.60
41116;DHT22;26861;51.824;4.682;2024-01-16T10:16:04;11.80;65.50
41116;DHT22;26861;51.824;4.682;2024-01-16T10:18:30;11.80;65.10
41116;DHT22;26861;51.824;4.682;2024-01-16T10:20:55;11.90;65.30
41116;DHT22;26861;51.824;4.682;2024-01-16T10:23:28;11.80;65.00
41116;DHT22;26861;51.824;4.682;2024-01-16T10:28:35;11.90;59.90
41116;DHT22;26861;51.824;4.682;2024-01-16T10:31:05;12.00;64.80
41116;DHT22;26861;51.824;4.682;2024-01-16T10:33:30;12.10;60.00
41116;DHT22;26861;51.824;4.682;2024-01-16T10:36:09;12.00;64.70
41116;DHT22;26861;51.824;4.682;2024-01-16T10:38:35;12.10;59.60
41116;DHT22;26861;51.824;4.682;2024-01-16T10:41:04;12.10;64.40
41116;DHT22;26861;51.824;4.682;2024-01-16T10:43:29;12.10;64.60
41116;DHT22;26861;51.824;4.682;2024-01-16T10:45:58;12.10;64.30
41116;DHT22;26861;51.824;4.682;2024-01-16T10:48:31;12.20;64.50
41116;DHT22;26861;51.824;4.682;2024-01-16T10:50:57;12.20;64.20
41116;DHT22;26861;51.824;4.682;2024-01-16T10:53:22;12.20;64.00
41116;DHT22;26861;51.824;4.682;2024-01-16T10:55:51;12.30;64.00
41116;DHT22;26861;51.824;4.682;2024-01-16T10:58:18;12.30;63.60
41116;DHT22;26861;51.824;4.682;2024-01-16T11:00:45;12.30;63.70
41116;DHT22;26861;51.824;4.682;2024-01-16T11:05:58;12.40;59.00
41116;DHT22;26861;51.824;4.682;2024-01-16T11:08:26;12.40;64.00
41116;DHT22;26861;51.824;4.682;2024-01-16T11:10:57;12.40;63.90
41116;DHT22;26861;51.824;4.682;2024-01-16T11:13:23;12.50;64.00
41116;DHT22;26861;51.824;4.682;2024-01-16T11:15:50;12.50;63.90
41116;DHT22;26861;51.824;4.682;2024-01-16T11:18:16;12.50;63.70
41116;DHT22;26861;51.824;4.682;2024-01-16T11:20:42;12.60;63.50
41116;DHT22;26861;51.824;4.682;2024-01-16T11:23:10;12.50;63.40
41116;DHT22;26861;51.824;4.682;2024-01-16T11:25:37;12.70;63.50
41116;DHT22;26861;51.824;4.682;2024-01-16T11:28:09;12.70;63.40
41116;DHT22;26861;51.824;4.682;2024-01-16T11:30:36;12.80;58.50
41116;DHT22;26861;51.824;4.682;2024-01-16T11:33:02;12.90;63.40
41116;DHT22;26861;51.824;4.682;2024-01-16T11:35:34;12.90;62.60
41116;DHT22;26861;51.824;4.682;2024-01-16T11:38:04;12.90;62.60
41116;DHT22;26861;51.824;4.682;2024-01-16T11:40:34;13.00;58.30
41116;DHT22;26861;51.824;4.682;2024-01-16T11:45:48;13.20;58.00
41116;DHT22;26861;51.824;4.682;2024-01-16T11:48:15;13.30;58.20
41116;DHT22;26861;51.824;4.682;2024-01-16T11:50:42;13.20;62.60
41116;DHT22;26861;51.824;4.682;2024-01-16T11:53:08;13.30;62.30
41116;DHT22;26861;51.824;4.682;2024-01-16T11:55:35;13.30;62.40
41116;DHT22;26861;51.824;4.682;2024-01-16T12:00:47;13.40;57.80
41116;DHT22;26861;51.824;4.682;2024-01-16T12:03:16;13.50;62.00
41116;DHT22;26861;51.824;4.682;2024-01-16T12:05:43;13.50;62.50
41116;DHT22;26861;51.824;4.682;2024-01-16T12:08:09;13.50;62.20
41116;DHT22;26861;51.824;4.682;2024-01-16T12:10:45;13.60;62.00
41116;DHT22;26861;51.824;4.682;2024-01-16T12:13:11;13.70;62.40
41116;DHT22;26861;51.824;4.682;2024-01-16T12:15:38;13.70;61.90
41116;DHT22;26861;51.824;4.682;2024-01-16T12:18:03;14.20;62.20
41116;DHT22;26861;51.824;4.682;2024-01-16T12:20:29;13.80;61.60
41116;DHT22;26861;51.824;4.682;2024-01-16T12:22:59;13.80;62.00
41116;DHT22;26861;51.824;4.682;2024-01-16T12:25:25;13.90;57.20
41116;DHT22;26861;51.824;4.682;2024-01-16T12:28:01;13.90;61.70
41116;DHT22;26861;51.824;4.682;2024-01-16T12:30:27;14.00;56.90
41116;DHT22;26861;51.824;4.682;2024-01-16T12:33:10;14.00;61.80
41116;DHT22;26861;51.824;4.682;2024-01-16T12:35:36;13.80;61.70
41116;DHT22;26861;51.824;4.682;2024-01-16T12:38:03;14.00;62.50
41116;DHT22;26861;51.824;4.682;2024-01-16T12:40:34;13.90;62.40
41116;DHT22;26861;51.824;4.682;2024-01-16T12:43:05;13.90;62.60
41116;DHT22;26861;51.824;4.682;2024-01-16T12:45:31;13.90;57.50
41116;DHT22;26861;51.824;4.682;2024-01-16T12:47:59;14.00;61.90
41116;DHT22;26861;51.824;4.682;2024-01-16T12:50:26;14.00;61.90
41116;DHT22;26861;51.824;4.682;2024-01-16T12:53:02;14.00;61.80
41116;DHT22;26861;51.824;4.682;2024-01-16T12:55:29;14.10;56.90
41116;DHT22;26861;51.824;4.682;2024-01-16T13:00:40;14.10;57.40
41116;DHT22;26861;51.824;4.682;2024-01-16T13:03:06;14.20;61.40
41116;DHT22;26861;51.824;4.682;2024-01-16T13:05:32;14.20;61.10
41116;DHT22;26861;51.824;4.682;2024-01-16T13:08:02;14.30;61.50
41116;DHT22;26861;51.824;4.682;2024-01-16T13:10:28;14.20;56.80
41116;DHT22;26861;51.824;4.682;2024-01-16T13:13:11;14.30;61.20
41116;DHT22;26861;51.824;4.682;2024-01-16T13:15:37;14.30;56.80
41116;DHT22;26861;51.824;4.682;2024-01-16T13:18:03;14.30;61.40
41116;DHT22;26861;51.824;4.682;2024-01-16T13:20:28;14.40;61.30
41116;DHT22;26861;51.824;4.682;2024-01-16T13:22:54;14.40;61.10
41116;DHT22;26861;51.824;4.682;2024-01-16T13:25:19;14.50;61.00
41116;DHT22;26861;51.824;4.682;2024-01-16T13:27:45;14.50;61.00
41116;DHT22;26861;51.824;4.682;2024-01-16T13:30:11;14.60;60.80
41116;DHT22;26861;51.824;4.682;2024-01-16T13:32:37;14.50;60.60
41116;DHT22;26861;51.824;4.682;2024-01-16T13:35:02;14.60;61.10
41116;DHT22;26861;51.824;4.682;2024-01-16T13:37:32;14.50;60.50
41116;DHT22;26861;51.824;4.682;2024-01-16T13:39:58;14.60;60.70
41116;DHT22;26861;51.824;4.682;2024-01-16T13:42:23;14.60;60.50
41116;DHT22;26861;51.824;4.682;2024-01-16T13:44:49;14.60;60.80
41116;DHT22;26861;51.824;4.682;2024-01-16T13:47:14;14.60;60.40
41116;DHT22;26861;51.824;4.682;2024-01-16T13:49:40;14.70;60.80
41116;DHT22;26861;51.824;4.682;2024-01-16T13:52:06;14.60;60.40
41116;DHT22;26861;51.824;4.682;2024-01-16T13:54:31;14.80;60.50
41116;DHT22;26861;51.824;4.682;2024-01-16T13:56:57;14.70;60.10
41116;DHT22;26861;51.824;4.682;2024-01-16T13:59:23;14.70;60.20
41116;DHT22;26861;51.824;4.682;2024-01-16T14:01:49;14.60;60.40
41116;DHT22;26861;51.824;4.682;2024-01-16T14:04:15;14.70;60.30
41116;DHT22;26861;51.824;4.682;2024-01-16T14:06:40;14.80;60.20
41116;DHT22;26861;51.824;4.682;2024-01-16T14:09:06;14.70;60.20
41116;DHT22;26861;51.824;4.682;2024-01-16T14:11:34;14.80;60.00
41116;DHT22;26861;51.824;4.682;2024-01-16T14:14:00;14.80;60.30
41116;DHT22;26861;51.824;4.682;2024-01-16T14:16:28;14.80;61.00
41116;DHT22;26861;51.824;4.682;2024-01-16T14:18:53;14.70;60.50
41116;DHT22;26861;51.824;4.682;2024-01-16T14:21:19;14.60;60.60
41116;DHT22;26861;51.824;4.682;2024-01-16T14:23:44;14.70;60.00
41116;DHT22;26861;51.824;4.682;2024-01-16T14:26:10;14.60;60.90
41116;DHT22;26861;51.824;4.682;2024-01-16T14:28:35;14.60;60.90
41116;DHT22;26861;51.824;4.682;2024-01-16T14:31:01;14.60;60.90
41116;DHT22;26861;51.824;4.682;2024-01-16T14:33:27;14.60;61.10
41116;DHT22;26861;51.824;4.682;2024-01-16T14:35:53;14.40;61.30
41116;DHT22;26861;51.824;4.682;2024-01-16T14:38:19;14.30;61.50
41116;DHT22;26861;51.824;4.682;2024-01-16T14:40:44;14.30;61.80
41116;DHT22;26861;51.824;4.682;2024-01-16T14:43:11;14.20;62.10
41116;DHT22;26861;51.824;4.682;2024-01-16T14:45:37;14.20;62.40
41116;DHT22;26861;51.824;4.682;2024-01-16T14:48:03;14.10;62.60
41116;DHT22;26861;51.824;4.682;2024-01-16T14:50:30;14.10;61.10
41116;DHT22;26861;51.824;4.682;2024-01-16T14:52:55;14.20;62.90
41116;DHT22;26861;51.824;4.682;2024-01-16T14:55:21;14.00;62.90
41116;DHT22;26861;51.824;4.682;2024-01-16T14:57:47;13.90;62.90
41116;DHT22;26861;51.824;4.682;2024-01-16T15:00:18;13.90;62.90
41116;DHT22;26861;51.824;4.682;2024-01-16T15:02:54;13.90;62.90
41116;DHT22;26861;51.824;4.682;2024-01-16T15:05:20;13.80;58.40
41116;DHT22;26861;51.824;4.682;2024-01-16T15:07:46;13.80;62.60
41116;DHT22;26861;51.824;4.682;2024-01-16T15:10:12;13.80;62.80
41116;DHT22;26861;51.824;4.682;2024-01-16T15:12:38;13.80;62.80
41116;DHT22;26861;51.824;4.682;2024-01-16T15:15:05;13.80;62.70
41116;DHT22;26861;51.824;4.682;2024-01-16T15:17:32;13.80;60.80
41116;DHT22;26861;51.824;4.682;2024-01-16T15:19:58;13.70;62.50
41116;DHT22;26861;51.824;4.682;2024-01-16T15:22:23;13.70;62.50
41116;DHT22;26861;51.824;4.682;2024-01-16T15:24:49;13.70;62.70
41116;DHT22;26861;51.824;4.682;2024-01-16T15:27:15;13.60;62.60
41116;DHT22;26861;51.824;4.682;2024-01-16T15:29:41;13.70;62.50
41116;DHT22;26861;51.824;4.682;2024-01-16T15:32:07;13.60;62.40
41116;DHT22;26861;51.824;4.682;2024-01-16T15:34:32;13.50;63.10
41116;DHT22;26861;51.824;4.682;2024-01-16T15:36:58;13.60;62.90